Terminal Aerodrome Forecast
Issued by NWS

Home | Current Version | Previous Version | Text Only | Print | Product List | Glossary On
Versions: 1 2 3 4 5 6 7 8 9 10 11 12 13 14 15 16 17
000
FTAK31 PAFA 312320
TAFAMC
TAF
PAMC 312320Z 0100/0124 01010G18KT P6SM SKC
     FM010800 VRB05KT P6SM SKC
     FM012200 23005KT P6SM VCSH SCT070 BKN120=

USA.gov is the U.S. government's official web portal to all federal, state and local government web resources and services.